Time;durP1;ratioP1;P1;durP2;ratioP2;P2;SDS_P1;SDS_P2;PMS_P1;PMS_P2;Temp;Humidity;BMP_temperature;BMP_pressure;BME280_temperature;BME280_humidity;BME280_pressure;Samples;Min_cycle;Max_cycle;Signal;HPM_P1;HPM_P2
2021/06/09 00:00:00;;;;;;;1.65;1.55;;;;;;;20.21;47.00;101121.94;4981120;58;1138464;-78
2021/06/09 00:05:07;;;;;;;1.60;1.42;;;;;;;20.04;47.54;101135.02;4979849;57;1138475;-78
2021/06/09 00:10:13;;;;;;;1.55;1.20;;;;;;;19.96;47.97;101124.27;5007525;58;1138615;-77
2021/06/09 00:15:20;;;;;;;1.17;1.17;;;;;;;19.97;48.34;101123.27;4997047;58;1138743;-77
2021/06/09 00:20:28;;;;;;;4.42;1.25;;;;;;;19.85;48.61;101117.88;4997190;58;1138374;-79
2021/06/09 00:25:35;;;;;;;3.05;1.20;;;;;;;19.63;48.95;101127.38;4997205;58;1138990;-78
2021/06/09 00:30:42;;;;;;;3.55;1.10;;;;;;;19.43;49.36;101125.91;4997144;58;1138550;-79
2021/06/09 00:35:48;;;;;;;1.95;1.60;;;;;;;19.31;49.62;101123.53;4996927;58;1138491;-78
2021/06/09 00:40:53;;;;;;;1.45;1.17;;;;;;;19.19;49.93;101127.50;4997146;58;1138472;-77
2021/06/09 00:46:04;;;;;;;1.55;1.48;;;;;;;19.11;50.41;101130.12;5015646;58;1148240;-78
2021/06/09 00:51:19;;;;;;;4.47;1.45;;;;;;;19.04;50.73;101131.77;4740622;60;1138521;-78
2021/06/09 00:56:26;;;;;;;2.90;1.60;;;;;;;19.06;50.88;101127.09;4752502;60;1138650;-78
2021/06/09 01:01:33;;;;;;;2.05;1.42;;;;;;;19.04;51.09;101133.61;4752484;60;1138449;-75
2021/06/09 01:06:39;;;;;;;2.80;1.55;;;;;;;19.07;50.96;101137.33;4753269;60;1138422;-78
2021/06/09 01:11:46;;;;;;;5.42;1.37;;;;;;;19.14;51.26;101135.67;4834163;59;1138385;-75
2021/06/09 01:16:53;;;;;;;2.00;1.50;;;;;;;19.19;51.16;101130.68;5052001;58;1138508;-78
2021/06/09 01:21:59;;;;;;;7.95;2.30;;;;;;;19.27;51.19;101128.02;5052443;57;1138494;-79
2021/06/09 01:27:05;;;;;;;3.90;2.08;;;;;;;19.18;51.31;101132.52;5052796;58;1138317;-76
2021/06/09 01:32:11;;;;;;;1.72;1.55;;;;;;;19.10;51.46;101132.95;5052754;58;1138600;-76
2021/06/09 01:37:19;;;;;;;2.25;1.57;;;;;;;18.97;51.77;101132.05;5052932;58;1138819;-75
2021/06/09 01:42:29;;;;;;;6.08;2.77;;;;;;;18.77;51.92;101130.60;5052842;58;1138379;-76
2021/06/09 01:47:35;;;;;;;5.35;2.08;;;;;;;18.65;52.10;101133.17;5052765;58;1138274;-75
2021/06/09 01:52:42;;;;;;;4.80;1.82;;;;;;;18.67;52.52;101142.73;5052792;58;1138293;-78
2021/06/09 01:57:49;;;;;;;1.62;1.62;;;;;;;18.66;52.26;101146.41;5052768;58;1138286;-74
2021/06/09 02:03:00;;;;;;;4.58;2.02;;;;;;;18.68;52.24;101140.41;5052768;58;1138261;-74
2021/06/09 02:08:12;;;;;;;4.30;2.00;;;;;;;18.67;52.30;101141.89;5053360;58;1138823;-76
2021/06/09 02:13:20;;;;;;;;;;;;;;;18.75;52.67;101125.89;5019136;58;1138427;-75
2021/06/09 02:18:28;;;;;;;2.30;2.10;;;;;;;18.81;52.61;101121.23;5044160;58;976060;-77
2021/06/09 02:23:36;;;;;;;2.30;1.70;;;;;;;18.76;52.47;101123.06;5031161;58;1136731;-76
2021/06/09 02:28:42;;;;;;;1.75;1.65;;;;;;;18.70;52.63;101119.66;4997551;58;1138756;-75
2021/06/09 02:33:48;;;;;;;1.87;1.60;;;;;;;18.58;52.45;101134.28;4997417;58;1138879;-78
2021/06/09 02:38:56;;;;;;;3.67;2.12;;;;;;;18.30;52.72;101140.73;5030962;58;1138788;-78
2021/06/09 02:44:04;;;;;;;1.95;1.85;;;;;;;18.17;53.11;101135.28;4999806;58;1138723;-77
2021/06/09 02:49:13;;;;;;;2.75;1.90;;;;;;;18.25;53.45;101129.98;5000894;58;1138721;-80
2021/06/09 02:54:41;;;;;;;3.70;2.07;;;;;;;18.19;53.11;101135.09;4997790;58;1138209;-78
2021/06/09 03:00:08;;;;;;;2.45;1.85;;;;;;;18.02;52.99;101130.11;5030728;58;1138745;-76
2021/06/09 03:05:30;;;;;;;5.03;2.20;;;;;;;17.84;53.27;101136.78;5030613;58;1138555;-77
2021/06/09 03:10:58;;;;;;;2.70;2.27;;;;;;;17.70;53.38;101132.44;4997705;58;1138894;-75
2021/06/09 03:16:09;;;;;;;2.83;2.57;;;;;;;17.60;53.67;101139.13;5088396;57;1138782;-77
2021/06/09 03:21:30;;;;;;;9.75;2.50;;;;;;;17.58;54.24;101147.80;5097745;57;1138811;-77
2021/06/09 03:26:58;;;;;;;2.10;2.00;;;;;;;17.43;54.45;101142.09;5096917;57;1138363;-74
2021/06/09 03:32:29;;;;;;;3.83;2.20;;;;;;;17.23;54.92;101137.36;5101772;57;1143391;-78
2021/06/09 03:37:40;;;;;;;6.33;2.00;;;;;;;17.05;55.65;101134.25;5089909;57;1138488;-76
2021/06/09 03:42:49;;;;;;;3.00;2.30;;;;;;;16.96;56.06;101140.48;5097380;57;1138481;-76
2021/06/09 03:47:57;;;;;;;3.07;2.47;;;;;;;16.88;56.42;101134.02;5097479;57;1138276;-75
2021/06/09 03:53:04;;;;;;;2.53;2.40;;;;;;;16.81;57.01;101135.56;5095917;57;1237730;-76
2021/06/09 03:58:13;;;;;;;3.17;2.60;;;;;;;16.65;57.51;101141.98;5097732;57;1138266;-79
2021/06/09 04:03:22;;;;;;;4.07;2.50;;;;;;;16.64;57.95;101134.99;5097609;57;1138470;-78
2021/06/09 04:08:29;;;;;;;3.60;2.80;;;;;;;16.70;58.17;101139.74;5097424;57;1138970;-78
2021/06/09 04:13:36;;;;;;;4.43;3.20;;;;;;;16.72;58.47;101143.12;5057732;57;1138882;-79
2021/06/09 04:18:44;;;;;;;4.37;2.77;;;;;;;16.60;59.02;101145.57;5097394;57;1138824;-78
2021/06/09 04:23:50;;;;;;;3.03;2.83;;;;;;;16.60;59.44;101143.39;5097427;57;1138999;-74
2021/06/09 04:28:57;;;;;;;6.30;3.30;;;;;;;16.64;59.53;101142.16;5097466;57;1138690;-78
2021/06/09 04:34:04;;;;;;;3.20;2.63;;;;;;;16.70;59.82;101150.42;5096644;57;1179465;-78
2021/06/09 04:39:14;;;;;;;5.77;3.37;;;;;;;16.70;59.60;101157.11;5096994;57;1138425;-76
2021/06/09 04:44:20;;;;;;;4.22;3.25;;;;;;;16.72;60.01;101147.62;5097069;57;1138614;-77
2021/06/09 04:49:38;;;;;;;4.57;2.50;;;;;;;16.65;60.23;101153.20;5093320;57;1138340;-76
2021/06/09 04:54:44;;;;;;;7.30;2.37;;;;;;;16.66;60.56;101146.84;5096955;57;1138389;-79
2021/06/09 04:59:50;;;;;;;4.70;2.53;;;;;;;16.73;60.45;101146.14;5097595;57;1138568;-77
2021/06/09 05:04:56;;;;;;;5.03;2.40;;;;;;;16.83;60.65;101146.95;5097398;57;1138832;-79
2021/06/09 05:10:01;;;;;;;3.33;3.03;;;;;;;16.88;60.73;101146.04;5097841;57;1138198;-80
2021/06/09 05:15:11;;;;;;;3.90;3.10;;;;;;;16.90;60.59;101150.40;5098055;57;1138339;-79
2021/06/09 05:20:30;;;;;;;3.45;2.95;;;;;;;16.89;60.63;101140.20;5098018;57;1138412;-79
2021/06/09 05:25:37;;;;;;;5.00;3.00;;;;;;;16.85;60.71;101141.47;5097843;57;1138272;-76
2021/06/09 05:30:44;;;;;;;2.63;2.43;;;;;;;16.97;60.62;101140.80;5097398;57;1138279;-80
2021/06/09 05:35:56;;;;;;;4.70;2.33;;;;;;;17.10;60.65;101127.49;5097632;57;1138278;-81
2021/06/09 05:41:03;;;;;;;3.10;1.57;;;;;;;17.37;60.47;101132.51;5097632;57;1138360;-81
2021/06/09 05:46:11;;;;;;;2.70;2.50;;;;;;;17.66;60.02;101135.06;5097767;57;1138489;-78
2021/06/09 05:51:18;;;;;;;7.45;2.80;;;;;;;17.83;59.32;101134.25;5097431;57;1138672;-76
2021/06/09 05:56:27;;;;;;;8.00;1.80;;;;;;;17.97;59.18;101123.52;5097852;57;1138468;-77
2021/06/09 06:01:32;;;;;;;4.97;3.00;;;;;;;18.07;58.27;101123.78;5097837;57;1138730;-78
2021/06/09 06:06:39;;;;;;;3.93;2.47;;;;;;;18.18;57.94;101130.77;5097956;57;1138534;-79
2021/06/09 06:11:46;;;;;;;2.60;2.23;;;;;;;18.26;57.68;101135.69;5097621;57;1138495;-76
2021/06/09 06:16:58;;;;;;;2.93;1.90;;;;;;;18.48;57.57;101130.36;5098234;57;1138614;-79
2021/06/09 06:22:09;;;;;;;4.00;2.10;;;;;;;18.59;57.37;101130.14;5098020;57;1138453;-79
2021/06/09 06:27:18;;;;;;;5.43;1.80;;;;;;;18.70;56.75;101126.85;5098504;57;1138457;-76
2021/06/09 06:32:25;;;;;;;4.28;1.92;;;;;;;18.76;56.17;101127.08;5098198;57;1138796;-79
2021/06/09 06:37:31;;;;;;;3.83;1.77;;;;;;;19.00;56.49;101125.04;5097885;57;1138341;-79
2021/06/09 06:42:37;;;;;;;3.85;1.90;;;;;;;19.21;55.51;101122.81;5097999;57;1138937;-76
2021/06/09 06:47:44;;;;;;;4.10;2.30;;;;;;;19.45;55.71;101119.89;5097845;57;1138805;-81
2021/06/09 06:52:51;;;;;;;4.90;1.90;;;;;;;19.60;55.11;101115.61;5097684;57;1139116;-79
2021/06/09 06:57:58;;;;;;;2.24;1.90;;;;;;;19.59;53.51;101121.98;5097542;57;1138982;-82
2021/06/09 07:03:06;;;;;;;2.83;1.98;;;;;;;19.59;53.51;101125.51;5097584;57;1138828;-78
2021/06/09 07:08:12;;;;;;;1.90;1.40;;;;;;;19.73;54.47;101125.88;5098069;57;1138813;-77
2021/06/09 07:13:18;;;;;;;2.55;1.10;;;;;;;19.90;53.72;101120.39;5097893;57;1138773;-79
2021/06/09 07:18:25;;;;;;;2.85;1.98;;;;;;;20.12;52.21;101121.61;5097707;57;1138879;-80
2021/06/09 07:23:31;;;;;;;2.70;1.72;;;;;;;20.27;51.98;101120.45;5097694;57;1138518;-80
2021/06/09 07:28:47;;;;;;;3.87;1.57;;;;;;;20.36;51.46;101118.13;5097221;57;1138583;-80
2021/06/09 07:33:53;;;;;;;1.95;1.32;;;;;;;20.56;52.00;101120.81;5080087;57;1138317;-79
2021/06/09 07:39:12;;;;;;;1.55;1.35;;;;;;;20.75;51.49;101114.75;5085421;57;1138303;-78
2021/06/09 07:44:20;;;;;;;3.83;1.30;;;;;;;20.98;51.59;101123.26;5085503;57;1138398;-79
2021/06/09 07:49:28;;;;;;;1.45;1.32;;;;;;;21.20;49.90;101124.42;5085397;57;1138472;-77
2021/06/09 07:54:37;;;;;;;4.33;1.12;;;;;;;21.22;47.42;101119.70;5084997;57;1138721;-81
2021/06/09 07:59:44;;;;;;;1.82;1.07;;;;;;;21.36;50.08;101121.67;5085263;57;1138576;-75
2021/06/09 08:04:51;;;;;;;3.83;1.52;;;;;;;21.51;47.92;101123.12;5085146;57;1138557;-79
2021/06/09 08:09:57;;;;;;;3.83;1.10;;;;;;;21.40;47.77;101120.28;5085246;57;1138510;-77
2021/06/09 08:15:05;;;;;;;1.70;1.17;;;;;;;21.43;47.44;101122.30;5085178;57;1138700;-74
2021/06/09 08:20:13;;;;;;;2.17;1.07;;;;;;;21.62;46.46;101121.87;5028289;57;1139061;-79
2021/06/09 08:25:24;;;;;;;1.00;0.90;;;;;;;21.62;46.46;101121.87;4948079;58;1138858;-76
2021/06/09 08:30:30;;;;;;;3.65;1.20;;;;;;;21.64;46.46;101129.27;4947919;58;1138762;-76
2021/06/09 08:35:35;;;;;;;1.40;1.10;;;;;;;21.67;46.23;101123.04;4947818;58;1138818;-75
2021/06/09 08:40:41;;;;;;;7.40;1.40;;;;;;;21.78;46.64;101120.95;4948148;58;1139040;-80
2021/06/09 08:45:48;;;;;;;2.58;1.42;;;;;;;22.03;47.43;101118.45;4948670;58;1138881;-80
2021/06/09 08:50:57;;;;;;;1.07;1.05;;;;;;;22.29;47.20;101116.27;4918955;58;1138949;-78
2021/06/09 08:56:05;;;;;;;2.80;1.22;;;;;;;22.37;45.42;101112.14;4947838;58;1138992;-79
2021/06/09 09:01:12;;;;;;;1.57;1.22;;;;;;;22.46;43.38;101116.42;4928885;58;1138813;-77
2021/06/09 09:06:20;;;;;;;5.50;1.83;;;;;;;22.50;45.02;101112.03;4948508;58;1138730;-78
2021/06/09 09:11:27;;;;;;;5.12;1.37;;;;;;;22.71;44.40;101116.22;4947999;58;1138866;-76
2021/06/09 09:16:33;;;;;;;10.50;1.25;;;;;;;22.95;45.56;101117.34;4947936;58;1138933;-75
2021/06/09 09:21:42;;;;;;;2.90;1.32;;;;;;;23.41;45.62;101107.69;4947744;58;1140803;-78
2021/06/09 09:26:51;;;;;;;6.10;1.52;;;;;;;23.54;42.59;101117.84;4948245;58;1138853;-76
2021/06/09 09:31:59;;;;;;;3.30;1.50;;;;;;;23.61;43.92;101119.62;4947925;58;1138831;-80
2021/06/09 09:37:12;;;;;;;11.75;1.05;;;;;;;23.75;43.93;101123.30;4948029;58;1138777;-79
2021/06/09 09:42:32;;;;;;;2.55;1.37;;;;;;;23.89;42.31;101130.53;4947977;58;1140874;-80
2021/06/09 09:52:53;;;;;;;1.25;1.00;;;;;;;24.06;41.43;101132.48;4918768;58;1138668;-73
2021/06/09 09:58:10;;;;;;;1.40;1.00;;;;;;;24.05;42.34;101132.16;4948387;58;1138487;-80
2021/06/09 10:03:19;;;;;;;1.73;1.43;;;;;;;23.95;40.76;101127.59;4948446;58;1138796;-75
2021/06/09 10:08:29;;;;;;;4.22;1.52;;;;;;;23.97;42.15;101118.27;4948382;58;1138760;-77
2021/06/09 10:13:35;;;;;;;5.50;1.42;;;;;;;24.22;43.17;101109.77;4948145;58;1138511;-77
2021/06/09 10:18:41;;;;;;;5.60;1.72;;;;;;;24.54;42.71;101111.45;4948260;58;1138455;-78
2021/06/09 10:23:47;;;;;;;2.95;1.67;;;;;;;24.74;42.73;101106.20;4923470;58;1138823;-80
2021/06/09 10:29:08;;;;;;;2.50;1.55;;;;;;;24.71;40.16;101108.45;4934983;58;1138494;-79
2021/06/09 10:34:14;;;;;;;2.35;1.40;;;;;;;24.76;40.24;101111.37;4941229;58;1138926;-78
2021/06/09 10:39:23;;;;;;;9.68;1.30;;;;;;;25.09;41.05;101106.22;4869878;58;1138808;-81
2021/06/09 10:44:33;;;;;;;2.25;1.20;;;;;;;25.46;41.23;101103.61;4854382;59;1138766;-76
2021/06/09 10:49:41;;;;;;;0.90;0.90;;;;;;;25.79;40.31;101107.30;4911336;58;1138609;-77
2021/06/09 10:54:47;;;;;;;1.32;1.10;;;;;;;25.62;37.65;101102.45;4858166;58;1138600;-82
2021/06/09 10:59:53;;;;;;;2.17;0.98;;;;;;;25.81;39.39;101094.91;4903238;58;1138748;-80
2021/06/09 11:05:03;;;;;;;1.95;1.27;;;;;;;25.86;37.52;101103.23;4911203;58;1138580;-80
2021/06/09 11:10:16;;;;;;;0.80;0.80;;;;;;;25.72;37.27;101091.53;4838560;58;1138729;-76
2021/06/09 11:15:33;;;;;;;4.37;0.90;;;;;;;25.75;37.81;101088.94;4898603;58;1139121;-80
2021/06/09 11:20:41;;;;;;;4.62;1.45;;;;;;;25.67;37.00;101089.11;4911355;58;1138625;-77
2021/06/09 11:25:50;;;;;;;6.35;0.90;;;;;;;25.48;38.52;101081.22;4911480;58;1138672;-80
2021/06/09 11:31:03;;;;;;;5.92;1.17;;;;;;;25.72;37.69;101075.79;4880280;58;1139039;-79
2021/06/09 11:36:25;;;;;;;3.20;0.98;;;;;;;26.01;37.86;101079.50;4911401;58;1138527;-76
2021/06/09 11:41:43;;;;;;;1.47;0.82;;;;;;;26.08;36.31;101060.02;4911620;58;1138604;-78
2021/06/09 11:46:49;;;;;;;0.90;0.90;;;;;;;26.08;35.09;101070.03;4911605;58;1138806;-80
2021/06/09 11:52:05;;;;;;;0.95;0.80;;;;;;;26.13;36.45;101063.45;4888727;58;1138815;-79
2021/06/09 11:57:24;;;;;;;3.62;1.15;;;;;;;26.32;36.48;101057.75;4911568;58;1138598;-77
2021/06/09 12:02:30;;;;;;;2.27;0.75;;;;;;;26.39;35.03;101052.66;4906940;58;1138826;-77
2021/06/09 12:07:37;;;;;;;4.67;1.00;;;;;;;26.37;37.13;101056.61;4911532;58;1138811;-78
2021/06/09 12:12:43;;;;;;;0.85;0.85;;;;;;;26.71;37.21;101051.47;4911287;58;1138685;-76
2021/06/09 12:17:49;;;;;;;2.47;0.62;;;;;;;26.80;34.37;101045.59;4911615;58;1138628;-80
2021/06/09 12:22:57;;;;;;;1.07;0.80;;;;;;;26.80;34.37;101045.59;4911690;58;1138820;-78
2021/06/09 12:28:13;;;;;;;2.25;0.93;;;;;;;26.53;35.06;101048.05;4872005;58;1138807;-79
2021/06/09 12:33:19;;;;;;;1.65;0.95;;;;;;;26.42;35.00;101055.48;4905005;58;1138687;-75
2021/06/09 12:38:30;;;;;;;3.83;0.80;;;;;;;26.37;35.02;101040.34;4904110;58;1138611;-77
2021/06/09 12:43:35;;;;;;;2.27;1.20;;;;;;;26.28;34.71;101041.89;4908938;58;1138278;-77
2021/06/09 12:48:42;;;;;;;0.80;0.70;;;;;;;26.07;35.26;101031.24;4911476;58;1138584;-79
2021/06/09 12:53:48;;;;;;;3.30;1.12;;;;;;;26.16;37.25;101030.50;4911760;58;1138584;-78
2021/06/09 12:58:54;;;;;;;6.33;0.80;;;;;;;26.49;36.76;101031.88;4911218;58;1138648;-77
2021/06/09 13:04:00;;;;;;;1.32;0.85;;;;;;;26.82;36.01;101038.08;4911534;58;1138592;-79
2021/06/09 13:09:05;;;;;;;1.37;0.78;;;;;;;26.68;34.84;101014.73;4911114;58;1138558;-81
2021/06/09 13:14:11;;;;;;;1.95;0.80;;;;;;;26.84;34.38;101018.34;4890413;58;1139160;-80
2021/06/09 13:19:19;;;;;;;1.10;0.70;;;;;;;26.90;33.59;101013.39;4867852;58;1138708;-79
2021/06/09 13:24:34;;;;;;;1.13;0.90;;;;;;;27.08;34.31;101006.48;4906466;58;1138864;-79
2021/06/09 13:29:49;;;;;;;1.52;1.00;;;;;;;27.12;33.01;101008.55;4952464;57;1138646;-79
2021/06/09 13:35:21;;;;;;;2.10;1.25;;;;;;;26.85;32.83;101005.08;5006440;57;1138559;-79
2021/06/09 13:40:32;;;;;;;;;;;;;;;26.53;33.98;101008.71;4989624;57;1138323;-78
2021/06/09 13:45:46;;;;;;;3.10;0.88;;;;;;;26.26;34.13;100999.23;5037688;57;975787;-80
2021/06/09 13:51:03;;;;;;;1.32;1.10;;;;;;;25.88;34.45;101004.95;5082282;57;1136732;-78
2021/06/09 13:56:09;;;;;;;0.93;0.90;;;;;;;25.79;35.09;101003.49;5062237;57;1138591;-79
2021/06/09 14:01:16;;;;;;;1.10;1.00;;;;;;;25.65;35.01;100995.88;5069544;57;1138615;-81
2021/06/09 14:06:22;;;;;;;1.40;0.97;;;;;;;25.52;35.54;100993.91;5001826;57;1138315;-82
2021/06/09 14:11:28;;;;;;;1.30;0.80;;;;;;;25.51;35.77;100993.59;4986176;57;1138536;-81
2021/06/09 14:16:35;;;;;;;10.32;1.30;;;;;;;25.53;35.48;100982.04;4987841;57;1138699;-82
2021/06/09 14:21:41;;;;;;;10.20;1.35;;;;;;;25.78;36.04;100982.34;4997601;57;1140662;-79
2021/06/09 14:26:49;;;;;;;0.50;0.50;;;;;;;25.89;35.52;100974.94;5062049;57;1140783;-83
2021/06/09 14:31:54;;;;;;;1.07;0.90;;;;;;;25.91;35.10;100929.48;5062134;57;1138613;-80
2021/06/09 14:37:07;;;;;;;10.00;1.02;;;;;;;26.08;34.52;100957.00;4986374;57;1138566;-81
2021/06/09 14:42:11;;;;;;;3.58;1.12;;;;;;;26.17;35.69;100965.74;4985560;57;1140375;-81
2021/06/09 14:47:42;;;;;;;1.77;1.32;;;;;;;26.05;35.13;100964.72;4986279;57;1138455;-81
2021/06/09 14:52:35;;;;;;;8.55;2.02;;;;;;;25.84;35.56;100967.10;5057313;57;1138465;-81
2021/06/09 14:57:43;;;;;;;1.72;1.20;;;;;;;26.10;36.85;100957.62;5062444;57;1138366;-81
2021/06/09 15:02:49;;;;;;;4.25;1.20;;;;;;;26.50;35.98;100958.94;5062436;57;1138321;-76
2021/06/09 15:07:55;;;;;;;3.72;0.88;;;;;;;26.63;34.46;100963.80;5062057;57;1138305;-78
2021/06/09 15:13:01;;;;;;;0.80;0.80;;;;;;;26.68;35.11;100957.74;4985876;57;1138318;-79
2021/06/09 15:18:07;;;;;;;6.30;1.05;;;;;;;26.71;34.19;100948.35;4986017;57;1138298;-78
2021/06/09 15:23:13;;;;;;;9.95;1.27;;;;;;;26.82;34.31;100953.09;5029266;57;1138372;-80
2021/06/09 15:28:19;;;;;;;8.28;1.02;;;;;;;26.83;34.04;100953.41;5065978;57;1138384;-80
2021/06/09 15:33:25;;;;;;;1.65;0.80;;;;;;;26.82;33.52;100958.00;5041372;57;1138318;-82
2021/06/09 15:38:31;;;;;;;2.92;1.10;;;;;;;26.83;33.84;100957.48;5052548;57;1138473;-79
2021/06/09 15:43:37;;;;;;;1.70;1.27;;;;;;;27.02;34.54;100955.77;5010362;58;1138363;-76
2021/06/09 15:48:43;;;;;;;1.47;0.93;;;;;;;27.23;34.37;100948.12;5052429;57;1138470;-82
2021/06/09 15:53:49;;;;;;;12.43;1.10;;;;;;;27.25;34.14;100951.45;5010813;58;1138412;-80
2021/06/09 15:58:55;;;;;;;0.60;0.60;;;;;;;27.29;33.32;100952.69;5010322;58;1140495;-77
2021/06/09 16:04:01;;;;;;;10.40;0.90;;;;;;;27.19;33.30;100950.95;5010686;58;1138680;-80
2021/06/09 16:09:10;;;;;;;7.67;1.22;;;;;;;26.80;33.44;100955.19;5010534;58;1140571;-79
2021/06/09 16:14:15;;;;;;;1.75;1.00;;;;;;;26.72;34.23;100955.45;5004308;58;1138531;-78
2021/06/09 16:19:21;;;;;;;1.48;0.96;;;;;;;26.57;34.07;100954.34;4984018;58;1138601;-79
2021/06/09 16:24:28;;;;;;;1.07;1.07;;;;;;;26.57;34.87;100957.06;4971080;57;1138538;-77
2021/06/09 16:29:33;;;;;;;1.72;1.20;;;;;;;26.59;34.68;100949.52;4930487;59;1138674;-82
2021/06/09 16:34:44;;;;;;;5.75;5.25;;;;;;;26.46;34.32;100952.27;4945355;57;1138558;-74
2021/06/09 16:39:48;;;;;;;5.25;2.00;;;;;;;26.32;34.84;100950.62;4900895;58;1138738;-75
2021/06/09 16:44:54;;;;;;;2.42;2.15;;;;;;;26.39;35.08;100952.81;4900837;58;1138482;-79
2021/06/09 16:50:00;;;;;;;4.60;4.17;;;;;;;26.36;35.17;100951.87;4900533;58;1138325;-81
2021/06/09 16:55:13;;;;;;;4.17;3.77;;;;;;;26.30;35.26;100956.78;4901099;58;1138305;-76
2021/06/09 17:00:16;;;;;;;4.40;3.35;;;;;;;26.33;35.49;100952.30;4905094;58;1139001;-78
2021/06/09 17:05:22;;;;;;;58.45;50.55;;;;;;;26.23;35.32;100958.97;4901384;58;1138315;-79
2021/06/09 17:10:27;;;;;;;11.55;8.95;;;;;;;25.97;35.86;100960.35;4719459;60;1142677;-80
2021/06/09 17:15:35;;;;;;;9.75;5.12;;;;;;;25.90;36.42;100963.57;4901143;58;1140516;-80
2021/06/09 17:20:45;;;;;;;156.18;141.70;;;;;;;25.95;36.59;100961.60;4901503;58;1138293;-77
2021/06/09 17:25:51;;;;;;;16.85;9.23;;;;;;;26.00;36.67;100958.55;4900477;58;1146821;-80
2021/06/09 17:30:58;;;;;;;37.25;27.32;;;;;;;26.03;36.62;100958.14;4901350;58;1140573;-79
2021/06/09 17:36:07;;;;;;;29.48;22.00;;;;;;;25.93;36.56;100958.58;4913409;58;1142662;-76
2021/06/09 17:41:14;;;;;;;61.10;45.67;;;;;;;25.84;36.63;100958.97;4860118;59;1142874;-74
2021/06/09 17:46:20;;;;;;;9.85;5.50;;;;;;;25.71;36.66;100963.03;4860525;59;1143002;-75
2021/06/09 17:51:26;;;;;;;9.10;3.27;;;;;;;25.72;37.18;100964.70;4775239;60;1138421;-78
2021/06/09 17:56:32;;;;;;;2.40;2.20;;;;;;;25.71;36.79;100967.09;4791938;59;1138746;-79
2021/06/09 18:01:55;;;;;;;3.20;2.83;;;;;;;25.56;36.94;100967.25;4791579;59;1138392;-80
2021/06/09 18:06:49;;;;;;;22.65;16.57;;;;;;;25.49;37.11;100963.20;4936771;58;1138715;-77
2021/06/09 18:11:54;;;;;;;34.05;25.27;;;;;;;25.45;37.27;100968.70;4939744;58;1142891;-80
2021/06/09 18:17:01;;;;;;;4.05;3.42;;;;;;;25.43;37.54;100965.36;4860062;59;1142429;-78
2021/06/09 18:22:07;;;;;;;13.35;3.33;;;;;;;25.42;37.64;100962.34;4775187;60;1138547;-78
2021/06/09 18:27:13;;;;;;;21.07;10.43;;;;;;;25.39;37.75;100968.16;4791604;59;1140632;-79
2021/06/09 18:32:20;;;;;;;42.40;12.12;;;;;;;25.37;37.73;100974.81;4806933;59;1142913;-79
2021/06/09 18:37:26;;;;;;;20.75;12.05;;;;;;;25.17;37.99;100976.97;4942771;58;1142960;-78
2021/06/09 18:42:31;;;;;;;20.80;12.63;;;;;;;25.06;38.23;100984.81;4840236;59;1142626;-78
2021/06/09 18:47:38;;;;;;;9.03;2.77;;;;;;;25.05;38.66;100985.36;4840524;59;1142800;-81
2021/06/09 18:52:45;;;;;;;11.12;4.92;;;;;;;25.02;38.78;100993.05;4840232;59;1138465;-79
2021/06/09 18:57:51;;;;;;;46.40;31.77;;;;;;;24.95;39.33;100994.88;4840243;59;1140365;-79
2021/06/09 19:02:57;;;;;;;12.50;8.83;;;;;;;24.83;39.55;100996.77;4840285;59;1142677;-80
2021/06/09 19:08:09;;;;;;;13.45;7.78;;;;;;;24.71;40.37;101002.95;4840172;59;1140436;-78
2021/06/09 19:13:16;;;;;;;14.40;7.40;;;;;;;24.62;41.23;101009.02;4840272;59;1140424;-80
2021/06/09 19:18:22;;;;;;;16.57;10.70;;;;;;;24.57;41.74;101012.02;4839994;59;1141036;-82
2021/06/09 19:23:28;;;;;;;6.47;5.85;;;;;;;24.53;41.93;101023.75;4837956;59;1142814;-79
2021/06/09 19:28:34;;;;;;;14.33;6.65;;;;;;;24.45;41.98;101031.48;4838234;59;1138884;-81
2021/06/09 19:33:40;;;;;;;11.45;6.08;;;;;;;24.37;42.54;101029.45;4837900;59;1140832;-79
2021/06/09 19:38:47;;;;;;;13.93;6.42;;;;;;;24.28;42.42;101040.10;4837751;59;1140734;-77
2021/06/09 19:43:53;;;;;;;7.03;5.30;;;;;;;24.20;42.70;101043.73;4837845;59;1140614;-79
2021/06/09 19:48:59;;;;;;;10.13;5.37;;;;;;;24.11;42.94;101043.05;4838226;59;1138593;-79
2021/06/09 19:54:05;;;;;;;8.85;5.00;;;;;;;23.94;42.72;101051.61;4837684;59;1140686;-78
2021/06/09 19:59:11;;;;;;;12.00;6.40;;;;;;;23.73;42.79;101054.62;4837720;59;1138566;-82
2021/06/09 20:04:18;;;;;;;12.18;4.37;;;;;;;23.48;42.94;101054.63;4838100;59;1140845;-81
2021/06/09 20:09:25;;;;;;;28.27;7.25;;;;;;;23.20;43.10;101053.66;4837856;59;1140923;-85
2021/06/09 20:14:30;;;;;;;16.30;5.75;;;;;;;22.94;43.41;101061.70;4846089;58;1140774;-82
2021/06/09 20:19:36;;;;;;;19.37;6.55;;;;;;;22.62;43.75;101060.17;4906331;58;1140786;-82
2021/06/09 20:24:42;;;;;;;22.02;6.55;;;;;;;22.51;44.58;101067.87;4914870;58;1140683;-81
2021/06/09 20:29:48;;;;;;;17.62;5.75;;;;;;;22.45;45.00;101079.73;4914380;58;1140711;-81
2021/06/09 20:34:54;;;;;;;14.70;5.65;;;;;;;22.35;45.23;101076.44;4916154;58;1140534;-79
2021/06/09 20:40:02;;;;;;;16.45;6.42;;;;;;;22.07;45.37;101075.33;4889605;58;1140385;-81
2021/06/09 20:45:09;;;;;;;21.80;6.97;;;;;;;21.86;45.96;101082.67;4983519;58;1140384;-81
2021/06/09 20:50:18;;;;;;;9.53;5.03;;;;;;;21.75;46.31;101082.59;5014360;57;1140503;-82
2021/06/09 20:55:24;;;;;;;13.32;4.28;;;;;;;21.72;46.35;101083.45;5042492;57;1138558;-81
2021/06/09 21:00:30;;;;;;;20.20;4.75;;;;;;;21.61;46.75;101080.66;5002695;57;1140422;-80
2021/06/09 21:05:38;;;;;;;13.32;5.28;;;;;;;21.57;46.94;101074.45;4983558;58;1140977;-80
2021/06/09 21:10:44;;;;;;;9.08;4.45;;;;;;;21.56;47.35;101078.99;4983210;58;1141102;-80
2021/06/09 21:15:50;;;;;;;9.73;4.92;;;;;;;21.50;47.26;101088.30;5006125;57;1138502;-79
2021/06/09 21:20:57;;;;;;;14.75;5.78;;;;;;;21.43;47.81;101088.66;5007178;57;1139015;-78
2021/06/09 21:26:03;;;;;;;13.75;4.78;;;;;;;21.24;47.93;101090.75;4983394;58;1140485;-79
2021/06/09 21:31:10;;;;;;;21.33;5.80;;;;;;;20.84;48.16;101096.23;4983341;58;1140455;-80
2021/06/09 21:36:16;;;;;;;23.75;5.70;;;;;;;20.49;49.19;101099.64;4983500;58;1140465;-77
2021/06/09 21:41:23;;;;;;;18.60;5.72;;;;;;;20.22;50.00;101100.80;4995757;58;1140716;-78
2021/06/09 21:46:28;;;;;;;17.20;5.42;;;;;;;19.94;50.82;101097.59;4969087;58;1140766;-78
2021/06/09 21:51:35;;;;;;;10.20;5.13;;;;;;;19.74;51.47;101105.59;4984019;58;1140849;-78
2021/06/09 21:56:41;;;;;;;14.67;5.77;;;;;;;19.77;51.88;101103.08;4983833;58;1140411;-80
2021/06/09 22:01:47;;;;;;;14.55;5.42;;;;;;;19.87;52.09;101102.42;4983812;58;1140562;-79
2021/06/09 22:06:53;;;;;;;14.47;6.05;;;;;;;19.96;52.10;101102.30;4983910;58;1140553;-80
2021/06/09 22:11:59;;;;;;;8.05;4.87;;;;;;;19.77;52.01;101100.40;4983764;58;1140735;-78
2021/06/09 22:17:05;;;;;;;10.04;4.56;;;;;;;19.58;52.35;101092.97;4983919;58;1138491;-78
2021/06/09 22:22:11;;;;;;;7.97;5.03;;;;;;;19.53;52.55;101094.48;4983750;58;1140651;-80
2021/06/09 22:27:19;;;;;;;32.95;12.40;;;;;;;19.58;52.95;101096.15;4983917;58;1138427;-77
2021/06/09 22:32:25;;;;;;;48.25;16.62;;;;;;;19.68;53.14;101094.69;4983639;58;1142842;-79
2021/06/09 22:37:31;;;;;;;50.45;20.95;;;;;;;19.70;52.96;101086.81;4983778;58;1142687;-80
2021/06/09 22:42:37;;;;;;;57.88;26.65;;;;;;;19.75;52.84;101079.09;4983780;58;1142545;-78
2021/06/09 22:47:43;;;;;;;58.80;27.27;;;;;;;19.79;52.66;101077.77;4846751;58;1142635;-79
2021/06/09 22:52:49;;;;;;;54.25;24.75;;;;;;;19.72;52.49;101070.02;4839719;59;1142645;-80
2021/06/09 22:57:54;;;;;;;41.85;18.48;;;;;;;19.69;52.51;101074.90;4839835;59;1142502;-78
2021/06/09 23:03:01;;;;;;;29.07;13.78;;;;;;;19.65;52.52;101069.02;4839908;59;1142471;-78
2021/06/09 23:08:07;;;;;;;18.20;9.05;;;;;;;19.58;52.61;101064.80;4839805;59;1142661;-78
2021/06/09 23:13:15;;;;;;;15.20;6.83;;;;;;;19.50;52.72;101061.27;4840444;59;1140636;-78
2021/06/09 23:18:20;;;;;;;20.14;9.36;;;;;;;19.42;53.14;101063.87;4840030;59;1140400;-80